Time;durP1;ratioP1;P1;durP2;ratioP2;P2;SDS_P1;SDS_P2;PMS_P1;PMS_P2;Temp;Humidity;BMP_temperature;BMP_pressure;BME280_temperature;BME280_humidity;BME280_pressure;Samples;Min_cycle;Max_cycle;Signal;HPM_P1;HPM_P2
2021/09/08 00:00:26;;;;;;;30.02;21.42;;;17.90;99.90;;;;;;5092704;28;20083;-73
2021/09/08 00:02:53;;;;;;;27.23;19.35;;;17.90;99.90;;;;;;5093216;28;20115;-73
2021/09/08 00:05:18;;;;;;;26.52;18.92;;;17.90;99.90;;;;;;5093494;28;20093;-73
2021/09/08 00:07:44;;;;;;;27.75;18.85;;;17.80;99.90;;;;;;5093002;28;20426;-73
2021/09/08 00:10:13;;;;;;;29.17;20.77;;;17.80;99.90;;;;;;5092738;28;20487;-73
2021/09/08 00:12:39;;;;;;;34.55;21.35;;;17.80;99.90;;;;;;5093094;28;20499;-73
2021/09/08 00:15:07;;;;;;;28.65;20.05;;;17.70;99.90;;;;;;5092888;28;20039;-72
2021/09/08 00:17:33;;;;;;;29.83;21.17;;;17.80;99.90;;;;;;5091634;28;20086;-72
2021/09/08 00:19:59;;;;;;;33.72;20.88;;;17.70;99.90;;;;;;5092658;28;20071;-72
2021/09/08 00:22:25;;;;;;;28.27;20.75;;;17.70;99.90;;;;;;5092116;28;20381;-72
2021/09/08 00:24:51;;;;;;;32.85;22.67;;;17.60;99.90;;;;;;5092903;28;20085;-72
2021/09/08 00:27:16;;;;;;;34.58;23.20;;;17.70;99.90;;;;;;5096152;28;20036;-72
2021/09/08 00:29:42;;;;;;;32.83;22.23;;;17.70;99.90;;;;;;5096315;28;20040;-72
2021/09/08 00:32:09;;;;;;;30.77;21.42;;;17.70;99.90;;;;;;5096564;28;20067;-72
2021/09/08 00:34:34;;;;;;;34.30;23.23;;;17.70;99.90;;;;;;5096694;28;20036;-72
2021/09/08 00:37:00;;;;;;;33.13;23.33;;;17.60;99.90;;;;;;5097192;28;20036;-72
2021/09/08 00:39:25;;;;;;;33.28;22.65;;;17.60;99.90;;;;;;5094926;28;20082;-72
2021/09/08 00:41:51;;;;;;;36.47;23.80;;;17.60;99.90;;;;;;5096505;28;20036;-72
2021/09/08 00:44:17;;;;;;;34.15;22.45;;;17.60;99.90;;;;;;5096417;28;20142;-72
2021/09/08 00:46:44;;;;;;;33.53;22.95;;;17.50;99.90;;;;;;5096395;28;20047;-73
2021/09/08 00:49:11;;;;;;;35.20;23.15;;;17.50;99.90;;;;;;5096005;28;20135;-73
2021/09/08 00:51:38;;;;;;;38.40;23.55;;;17.50;99.90;;;;;;5096174;28;20399;-72
2021/09/08 00:54:12;;;;;;;32.53;22.55;;;17.50;99.90;;;;;;5096585;28;20070;-73
2021/09/08 00:56:40;;;;;;;35.85;24.98;;;17.50;99.90;;;;;;5096401;28;20036;-72
2021/09/08 00:59:06;;;;;;;34.50;23.10;;;17.50;99.90;;;;;;5096641;28;20388;-73
2021/09/08 01:01:32;;;;;;;36.95;23.90;;;17.50;99.90;;;;;;5096057;28;20039;-73
2021/09/08 01:03:58;;;;;;;35.08;23.35;;;17.50;99.90;;;;;;5078102;28;20544;-73
2021/09/08 01:06:23;;;;;;;36.28;25.73;;;17.40;99.90;;;;;;5096151;28;20065;-72
2021/09/08 01:08:51;;;;;;;34.72;24.40;;;17.40;99.90;;;;;;5094449;28;20036;-73
2021/09/08 01:11:16;;;;;;;33.97;23.27;;;17.40;99.90;;;;;;5095899;28;20483;-73
2021/09/08 01:13:42;;;;;;;36.45;24.75;;;17.40;99.90;;;;;;5095922;28;20144;-72
2021/09/08 01:16:07;;;;;;;38.45;24.92;;;17.30;99.90;;;;;;5095844;28;20040;-73
2021/09/08 01:18:36;;;;;;;35.83;24.60;;;17.30;99.90;;;;;;5095592;28;20419;-73
2021/09/08 01:21:02;;;;;;;40.25;24.70;;;17.30;99.90;;;;;;5095615;28;20075;-72
2021/09/08 01:23:28;;;;;;;32.13;23.55;;;17.30;99.90;;;;;;5095711;28;20067;-72
2021/09/08 01:25:53;;;;;;;38.55;26.52;;;17.30;99.90;;;;;;5095659;28;20043;-72
2021/09/08 01:28:19;;;;;;;37.42;24.65;;;17.30;99.90;;;;;;5095632;28;20036;-72
2021/09/08 01:30:44;;;;;;;39.25;26.30;;;17.20;99.90;;;;;;5077482;28;20169;-72
2021/09/08 01:33:12;;;;;;;35.78;25.75;;;17.10;99.90;;;;;;5095914;28;20115;-72
2021/09/08 01:35:38;;;;;;;33.92;26.08;;;17.10;99.90;;;;;;5095608;28;20485;-72
2021/09/08 01:38:04;;;;;;;39.38;26.52;;;17.10;99.90;;;;;;5094701;28;20119;-72
2021/09/08 01:40:30;;;;;;;37.72;26.70;;;17.00;99.90;;;;;;5095119;28;20083;-73
2021/09/08 01:42:57;;;;;;;39.35;27.60;;;17.00;99.90;;;;;;5094139;28;20116;-72
2021/09/08 01:45:25;;;;;;;41.17;26.45;;;17.00;99.90;;;;;;5095553;28;20040;-72
2021/09/08 01:47:55;;;;;;;34.63;24.30;;;17.00;99.90;;;;;;5095550;28;20510;-73
2021/09/08 01:50:22;;;;;;;36.65;26.13;;;17.00;99.90;;;;;;5094974;28;20047;-72
2021/09/08 01:52:48;;;;;;;37.15;27.00;;;17.00;99.90;;;;;;5077246;28;20047;-73
2021/09/08 01:55:14;;;;;;;35.60;27.17;;;17.00;99.90;;;;;;5095321;28;20447;-72
2021/09/08 01:57:39;;;;;;;42.17;26.58;;;17.00;99.90;;;;;;5095109;28;20412;-72
2021/09/08 02:00:07;;;;;;;36.65;26.52;;;17.00;99.90;;;;;;5094585;28;20163;-72
2021/09/08 02:02:33;;;;;;;35.28;25.40;;;17.00;99.90;;;;;;5095113;28;20047;-72
2021/09/08 02:04:58;;;;;;;36.28;26.00;;;17.00;99.90;;;;;;5095001;28;20403;-72
2021/09/08 02:07:24;;;;;;;36.20;25.17;;;17.00;99.90;;;;;;5094826;28;20051;-72
2021/09/08 02:09:50;;;;;;;38.08;26.10;;;17.00;99.90;;;;;;5094367;28;20044;-72
2021/09/08 02:12:16;;;;;;;37.38;26.63;;;17.00;99.90;;;;;;5094857;28;20040;-72
2021/09/08 02:14:41;;;;;;;35.85;26.25;;;16.90;99.90;;;;;;5093968;28;20040;-72
2021/09/08 02:17:07;;;;;;;37.70;26.55;;;17.00;99.90;;;;;;5094704;28;20040;-72
2021/09/08 02:19:32;;;;;;;36.17;26.50;;;17.00;99.90;;;;;;5094280;28;20047;-72
2021/09/08 02:21:58;;;;;;;39.83;27.23;;;16.90;99.90;;;;;;5094413;28;20028;-72
2021/09/08 02:24:24;;;;;;;33.85;25.80;;;16.90;99.90;;;;;;5094553;28;20040;-72
2021/09/08 02:26:49;;;;;;;37.28;26.65;;;16.90;99.90;;;;;;5094733;28;20085;-72
2021/09/08 02:29:15;;;;;;;37.65;27.15;;;16.80;99.90;;;;;;5092715;28;20119;-72
2021/09/08 02:31:41;;;;;;;38.15;26.10;;;16.80;99.90;;;;;;5094361;28;20028;-72
2021/09/08 02:34:06;;;;;;;36.53;26.60;;;16.80;99.90;;;;;;5093053;28;20044;-72
2021/09/08 02:36:32;;;;;;;40.85;28.80;;;16.70;99.90;;;;;;5093328;28;20072;-72
2021/09/08 02:39:00;;;;;;;38.63;27.48;;;16.70;99.90;;;;;;5093088;28;20109;-73
2021/09/08 02:41:26;;;;;;;36.53;25.67;;;16.70;99.90;;;;;;5094299;28;20036;-73
2021/09/08 02:43:51;;;;;;;39.95;26.77;;;16.70;99.90;;;;;;5094248;28;20032;-73
2021/09/08 02:46:17;;;;;;;35.17;26.00;;;16.70;99.90;;;;;;5094086;28;20047;-72
2021/09/08 02:48:43;;;;;;;32.72;26.13;;;16.70;99.90;;;;;;5093676;28;20113;-72
2021/09/08 02:51:08;;;;;;;38.15;26.25;;;16.70;99.90;;;;;;5075808;28;20082;-72
2021/09/08 02:53:34;;;;;;;40.70;27.63;;;16.60;99.90;;;;;;5093903;28;20032;-72
2021/09/08 02:56:01;;;;;;;36.85;25.42;;;16.60;99.90;;;;;;5092661;28;20445;-72
2021/09/08 02:58:27;;;;;;;34.67;24.33;;;16.60;99.90;;;;;;5093893;28;20040;-72
2021/09/08 03:00:53;;;;;;;34.95;25.98;;;16.60;99.90;;;;;;5094268;28;20040;-72
2021/09/08 03:03:18;;;;;;;39.78;25.92;;;16.60;99.90;;;;;;5093819;28;20084;-72
2021/09/08 03:05:46;;;;;;;40.47;28.20;;;16.60;99.90;;;;;;5094500;28;20568;-73
2021/09/08 03:08:12;;;;;;;34.50;26.38;;;16.60;99.90;;;;;;5093785;28;20568;-72
2021/09/08 03:10:37;;;;;;;39.83;26.55;;;16.50;99.90;;;;;;5093500;28;20036;-72
2021/09/08 03:13:03;;;;;;;36.88;25.70;;;16.50;99.90;;;;;;5092929;28;20384;-72
2021/09/08 03:15:29;;;;;;;37.92;27.63;;;16.50;99.90;;;;;;5092874;28;20043;-72
2021/09/08 03:17:55;;;;;;;37.50;27.15;;;16.40;99.90;;;;;;5093963;28;20357;-72
2021/09/08 03:20:20;;;;;;;33.35;26.20;;;16.40;99.90;;;;;;5093208;28;20484;-72
2021/09/08 03:22:46;;;;;;;38.70;27.30;;;16.40;99.90;;;;;;5093589;28;20164;-72
2021/09/08 03:25:12;;;;;;;36.22;25.58;;;16.50;99.90;;;;;;5093970;28;20032;-72
2021/09/08 03:27:40;;;;;;;40.65;27.75;;;16.40;99.90;;;;;;5093524;28;20505;-72
2021/09/08 03:30:06;;;;;;;36.67;25.80;;;16.50;99.90;;;;;;5091886;28;20069;-72
2021/09/08 03:32:32;;;;;;;39.65;26.08;;;16.40;99.90;;;;;;5093282;28;20067;-72
2021/09/08 03:34:57;;;;;;;35.22;25.70;;;16.40;99.90;;;;;;5093766;28;20500;-72
2021/09/08 03:37:23;;;;;;;36.08;26.52;;;16.40;99.90;;;;;;5093285;28;20040;-72
2021/09/08 03:39:48;;;;;;;37.97;27.92;;;16.40;99.90;;;;;;5093197;28;20032;-72
2021/09/08 03:42:14;;;;;;;38.10;25.80;;;16.30;99.90;;;;;;5075113;28;20488;-72
2021/09/08 03:44:40;;;;;;;36.88;26.17;;;16.30;99.90;;;;;;5093417;28;20079;-72
2021/09/08 03:47:05;;;;;;;39.33;26.65;;;16.30;99.90;;;;;;5093361;28;20391;-72
2021/09/08 03:49:31;;;;;;;40.38;27.27;;;16.40;99.90;;;;;;5092745;28;20381;-72
2021/09/08 03:51:57;;;;;;;35.85;26.60;;;16.40;99.90;;;;;;5093350;28;20043;-73
2021/09/08 03:54:23;;;;;;;34.95;25.00;;;16.30;99.90;;;;;;5091813;28;20449;-73
2021/09/08 03:56:48;;;;;;;39.33;27.45;;;16.30;99.90;;;;;;5093016;28;20036;-73
2021/09/08 03:59:14;;;;;;;40.25;26.30;;;16.30;99.90;;;;;;5092888;28;20040;-73
2021/09/08 04:01:42;;;;;;;40.67;27.45;;;16.20;99.90;;;;;;5095565;28;20044;-73
2021/09/08 04:04:08;;;;;;;38.20;27.08;;;16.20;99.90;;;;;;5097418;28;20119;-73
2021/09/08 04:06:34;;;;;;;35.70;26.00;;;16.10;99.90;;;;;;5097438;28;20068;-72
2021/09/08 04:08:59;;;;;;;40.00;27.30;;;16.10;99.90;;;;;;5097020;28;20043;-73
2021/09/08 04:11:25;;;;;;;39.00;27.10;;;16.10;99.90;;;;;;5096036;28;20040;-72
2021/09/08 04:13:50;;;;;;;39.05;27.60;;;16.10;99.90;;;;;;5096244;28;20075;-72
2021/09/08 04:16:16;;;;;;;37.53;26.92;;;16.10;99.90;;;;;;5097285;28;20072;-72
2021/09/08 04:18:44;;;;;;;37.28;25.90;;;16.10;99.90;;;;;;5095679;28;20044;-72
2021/09/08 04:21:09;;;;;;;39.88;26.73;;;16.10;99.90;;;;;;5095665;28;20051;-72
2021/09/08 04:23:35;;;;;;;38.00;26.80;;;16.10;99.90;;;;;;5096793;28;20396;-72
2021/09/08 04:26:00;;;;;;;40.40;28.58;;;16.10;99.90;;;;;;5095774;28;20068;-72
2021/09/08 04:28:26;;;;;;;39.00;27.58;;;16.10;99.90;;;;;;5096950;28;20044;-73
2021/09/08 04:30:52;;;;;;;36.08;25.50;;;16.10;99.90;;;;;;5096463;28;20040;-72
2021/09/08 04:33:17;;;;;;;34.00;25.20;;;16.10;99.90;;;;;;5096800;28;20035;-72
2021/09/08 04:35:43;;;;;;;34.30;23.90;;;16.10;99.90;;;;;;5095406;28;20605;-72
2021/09/08 04:38:08;;;;;;;31.20;23.40;;;16.00;99.90;;;;;;5095679;28;20051;-72
2021/09/08 04:40:34;;;;;;;35.85;25.25;;;16.00;99.90;;;;;;5096641;28;20490;-72
2021/09/08 04:43:01;;;;;;;38.63;27.70;;;16.00;99.90;;;;;;5096643;28;20044;-73
2021/09/08 04:45:27;;;;;;;40.65;28.88;;;15.90;99.90;;;;;;5095230;28;20036;-73
2021/09/08 04:47:53;;;;;;;35.42;27.55;;;15.90;99.90;;;;;;5096743;28;20043;-73
2021/09/08 04:50:18;;;;;;;40.13;28.67;;;15.90;99.90;;;;;;5096074;28;20523;-73
2021/09/08 04:52:44;;;;;;;39.08;29.38;;;15.90;99.90;;;;;;5096415;28;20036;-73
2021/09/08 04:55:11;;;;;;;43.17;30.50;;;15.80;99.90;;;;;;5096839;28;20111;-73
2021/09/08 04:57:36;;;;;;;39.88;28.95;;;15.80;99.90;;;;;;5096527;28;20119;-72
2021/09/08 05:00:04;;;;;;;40.00;28.85;;;15.80;99.90;;;;;;5095907;28;20495;-72
2021/09/08 05:02:29;;;;;;;40.15;29.10;;;15.80;99.90;;;;;;5095035;28;20492;-72
2021/09/08 05:04:55;;;;;;;40.30;29.33;;;15.70;99.90;;;;;;5096287;28;20039;-72
2021/09/08 05:07:20;;;;;;;41.75;29.10;;;15.70;99.90;;;;;;5096184;28;20047;-72
2021/09/08 05:09:46;;;;;;;44.58;30.38;;;15.80;99.90;;;;;;5094770;28;20044;-72
2021/09/08 05:12:12;;;;;;;39.83;28.60;;;15.80;99.90;;;;;;5096182;28;20095;-72
2021/09/08 05:14:38;;;;;;;41.17;28.92;;;15.80;99.90;;;;;;5095947;28;20058;-72
2021/09/08 05:17:05;;;;;;;45.78;29.05;;;15.80;99.90;;;;;;5095920;28;20044;-73
2021/09/08 05:19:32;;;;;;;40.28;27.42;;;15.80;99.90;;;;;;5095684;28;20051;-72
2021/09/08 05:21:58;;;;;;;38.80;27.95;;;15.90;99.90;;;;;;5094653;28;20089;-72
2021/09/08 05:24:24;;;;;;;40.78;28.73;;;15.90;99.90;;;;;;5095064;28;20048;-72
2021/09/08 05:26:50;;;;;;;41.58;30.27;;;15.90;99.90;;;;;;5095954;28;20101;-72
2021/09/08 05:29:19;;;;;;;39.22;29.05;;;15.90;99.90;;;;;;5095333;28;20036;-73
2021/09/08 05:31:44;;;;;;;42.05;29.00;;;15.90;99.90;;;;;;5096348;28;20093;-73
2021/09/08 05:34:10;;;;;;;44.45;30.05;;;15.90;99.90;;;;;;5095130;28;20122;-73
2021/09/08 05:36:35;;;;;;;42.42;29.67;;;15.90;99.90;;;;;;5095698;28;20047;-73
2021/09/08 05:39:02;;;;;;;43.17;29.52;;;15.90;99.90;;;;;;5095383;28;20040;-73
2021/09/08 05:41:28;;;;;;;43.35;28.50;;;15.90;99.90;;;;;;5095617;28;20047;-73
2021/09/08 05:43:54;;;;;;;39.72;29.98;;;16.00;99.90;;;;;;5095404;28;20084;-72
2021/09/08 05:46:20;;;;;;;42.70;29.05;;;16.00;99.90;;;;;;5095378;28;20072;-72
2021/09/08 05:48:45;;;;;;;39.75;29.50;;;16.10;99.90;;;;;;5095046;28;20043;-73
2021/09/08 05:51:11;;;;;;;39.80;29.27;;;16.10;99.90;;;;;;5095110;28;20028;-73
2021/09/08 05:53:36;;;;;;;41.65;30.05;;;16.20;99.90;;;;;;5095202;28;20485;-72
2021/09/08 05:56:02;;;;;;;44.67;29.83;;;16.20;99.90;;;;;;5076981;28;20043;-72
2021/09/08 05:58:28;;;;;;;34.95;26.65;;;16.20;99.90;;;;;;5094721;28;20062;-73
2021/09/08 06:00:53;;;;;;;43.88;31.88;;;16.30;99.90;;;;;;5095207;28;20079;-73
2021/09/08 06:03:19;;;;;;;41.08;30.10;;;16.30;99.90;;;;;;5093923;28;20122;-72
2021/09/08 06:05:45;;;;;;;39.25;29.42;;;16.50;99.90;;;;;;5095226;28;20050;-73
2021/09/08 06:08:10;;;;;;;41.83;29.58;;;16.60;99.90;;;;;;5095291;28;20043;-72
2021/09/08 06:10:36;;;;;;;41.63;29.35;;;16.70;99.90;;;;;;5094567;28;20400;-72
2021/09/08 06:13:01;;;;;;;38.85;27.17;;;16.80;99.90;;;;;;5094921;28;20036;-72
2021/09/08 06:15:27;;;;;;;37.15;27.20;;;17.00;99.90;;;;;;5095008;28;20036;-72
2021/09/08 06:17:53;;;;;;;40.70;29.13;;;17.10;99.90;;;;;;5093585;28;20492;-72
2021/09/08 06:20:19;;;;;;;35.17;26.90;;;17.40;99.90;;;;;;5094532;28;20058;-72
2021/09/08 06:22:44;;;;;;;36.95;27.67;;;17.50;99.90;;;;;;5094998;28;20115;-72
2021/09/08 06:25:11;;;;;;;35.63;26.92;;;17.70;99.90;;;;;;5094236;28;20047;-72
2021/09/08 06:27:38;;;;;;;35.55;28.13;;;17.90;99.90;;;;;;5094797;28;20040;-72
2021/09/08 06:30:05;;;;;;;39.00;28.05;;;18.10;99.90;;;;;;5094160;28;20154;-72
2021/09/08 06:32:30;;;;;;;36.90;25.70;;;18.20;99.90;;;;;;5094277;28;20068;-72
2021/09/08 06:34:56;;;;;;;34.08;25.35;;;18.30;99.90;;;;;;5093150;28;20369;-72
2021/09/08 06:37:22;;;;;;;34.55;24.33;;;18.40;99.90;;;;;;5094500;28;20052;-72
2021/09/08 06:39:47;;;;;;;32.88;25.73;;;18.50;99.90;;;;;;5094140;28;20119;-72
2021/09/08 06:42:13;;;;;;;34.97;24.27;;;18.60;99.90;;;;;;5094153;28;20075;-72
2021/09/08 06:44:39;;;;;;;36.40;27.30;;;18.70;99.90;;;;;;5094872;28;20111;-72
2021/09/08 06:47:04;;;;;;;34.92;26.10;;;18.80;99.90;;;;;;5094181;28;20051;-72
2021/09/08 06:49:30;;;;;;;37.58;26.45;;;18.90;99.90;;;;;;5094169;28;20040;-72
2021/09/08 06:51:56;;;;;;;34.63;25.75;;;19.00;99.90;;;;;;5094426;28;20040;-72
2021/09/08 06:54:21;;;;;;;36.17;23.15;;;19.10;99.90;;;;;;5094340;28;20436;-72
2021/09/08 06:56:47;;;;;;;34.65;24.35;;;19.30;99.90;;;;;;5094114;28;20036;-74
2021/09/08 06:59:13;;;;;;;32.92;23.80;;;19.30;99.90;;;;;;5093621;28;20047;-71
2021/09/08 07:01:38;;;;;;;31.88;22.85;;;19.60;99.90;;;;;;5093676;28;20120;-70
2021/09/08 07:04:04;;;;;;;31.08;23.15;;;19.60;99.90;;;;;;5093963;28;20434;-70
2021/09/08 07:06:29;;;;;;;29.70;21.63;;;19.90;99.90;;;;;;5094337;28;20123;-70
2021/09/08 07:08:55;;;;;;;30.67;21.80;;;20.20;99.90;;;;;;5092213;28;20043;-71
2021/09/08 07:11:21;;;;;;;30.20;21.88;;;20.50;99.90;;;;;;5093721;28;20070;-71
2021/09/08 07:13:48;;;;;;;28.40;20.33;;;20.70;99.90;;;;;;5093783;28;20036;-71
2021/09/08 07:16:13;;;;;;;28.38;22.88;;;20.90;99.90;;;;;;5093967;28;20036;-71
2021/09/08 07:18:39;;;;;;;26.48;21.08;;;21.10;99.90;;;;;;5075396;28;20131;-71
2021/09/08 07:21:05;;;;;;;30.90;20.85;;;21.20;99.90;;;;;;5092345;28;20041;-71
2021/09/08 07:23:31;;;;;;;30.42;20.75;;;21.40;99.90;;;;;;5081871;28;20036;-71
2021/09/08 07:25:57;;;;;;;31.58;22.63;;;21.60;99.90;;;;;;5073424;28;20093;-72
2021/09/08 07:28:23;;;;;;;27.50;19.98;;;21.50;99.90;;;;;;5073140;28;20040;-71
2021/09/08 07:30:53;;;;;;;27.67;20.33;;;21.70;99.90;;;;;;5072922;28;20040;-71
2021/09/08 07:33:23;;;;;;;26.17;20.38;;;21.80;99.90;;;;;;5073132;28;20617;-71
2021/09/08 07:35:49;;;;;;;27.70;20.45;;;21.90;99.40;;;;;;5072104;28;20060;-71
2021/09/08 07:38:19;;;;;;;25.65;19.42;;;21.80;99.80;;;;;;5073003;28;20481;-71
2021/09/08 07:40:44;;;;;;;29.05;19.73;;;21.80;99.80;;;;;;5071570;28;20051;-72
2021/09/08 07:43:11;;;;;;;26.00;19.35;;;22.00;99.90;;;;;;5073157;28;20036;-72
2021/09/08 07:45:37;;;;;;;26.85;18.52;;;21.90;99.70;;;;;;5073215;28;20036;-71
2021/09/08 07:48:03;;;;;;;26.83;19.55;;;21.80;99.60;;;;;;5073387;28;20048;-71
2021/09/08 07:50:28;;;;;;;26.63;19.15;;;21.90;99.30;;;;;;5071605;28;20037;-71
2021/09/08 07:52:54;;;;;;;25.35;19.42;;;21.90;99.60;;;;;;5071555;28;20036;-71
2021/09/08 07:55:20;;;;;;;26.20;17.15;;;22.10;99.70;;;;;;5055834;28;20032;-71
2021/09/08 07:57:45;;;;;;;27.65;18.13;;;22.20;99.00;;;;;;5071578;28;20101;-71
2021/09/08 08:00:12;;;;;;;25.48;18.85;;;22.10;98.30;;;;;;5071529;28;20075;-71
2021/09/08 08:02:51;;;;;;;21.83;16.15;;;22.20;98.50;;;;;;5073043;28;20076;-71
2021/09/08 08:05:18;;;;;;;23.98;17.00;;;22.50;98.90;;;;;;5073404;28;20032;-71
2021/09/08 08:07:45;;;;;;;26.70;17.67;;;22.70;98.20;;;;;;5073251;28;20044;-71
2021/09/08 08:10:11;;;;;;;20.88;16.48;;;22.80;97.70;;;;;;5072727;28;20475;-71
2021/09/08 08:12:37;;;;;;;22.50;16.83;;;22.80;97.10;;;;;;5073131;28;20033;-71
2021/09/08 08:15:04;;;;;;;23.67;16.27;;;22.80;96.70;;;;;;5071588;28;20362;-71
2021/09/08 08:17:29;;;;;;;23.10;16.90;;;22.90;96.50;;;;;;5071824;28;20045;-72
2021/09/08 08:19:55;;;;;;;23.27;16.23;;;22.90;97.30;;;;;;5072514;28;20040;-70
2021/09/08 08:22:20;;;;;;;22.30;16.08;;;23.00;96.90;;;;;;5072707;28;20401;-70
2021/09/08 08:24:46;;;;;;;21.50;15.80;;;23.10;96.60;;;;;;5071580;28;20028;-70
2021/09/08 08:27:12;;;;;;;19.88;15.07;;;23.30;96.20;;;;;;5071899;28;20079;-71
2021/09/08 08:29:37;;;;;;;22.48;15.88;;;23.40;96.90;;;;;;5072561;28;20537;-71
2021/09/08 08:32:03;;;;;;;24.50;16.30;;;23.40;95.60;;;;;;5072526;28;20033;-71
2021/09/08 08:34:30;;;;;;;22.33;15.15;;;23.50;94.70;;;;;;5072584;28;20059;-71
2021/09/08 08:36:56;;;;;;;21.48;15.25;;;23.40;94.30;;;;;;5071704;28;20036;-71
2021/09/08 08:39:22;;;;;;;21.13;15.68;;;23.30;93.80;;;;;;5071378;28;20036;-70
2021/09/08 08:41:47;;;;;;;20.77;15.63;;;23.30;94.30;;;;;;5072786;28;20040;-70
2021/09/08 08:44:18;;;;;;;21.88;16.40;;;23.40;94.80;;;;;;5072657;28;20099;-70
2021/09/08 08:46:43;;;;;;;18.77;15.52;;;23.60;94.30;;;;;;5072093;28;20153;-70
2021/09/08 08:49:09;;;;;;;21.90;14.80;;;23.50;93.80;;;;;;5074844;28;20058;-71
2021/09/08 08:51:34;;;;;;;25.52;14.55;;;23.70;93.30;;;;;;5075287;28;20049;-70
2021/09/08 08:54:00;;;;;;;19.08;14.50;;;23.80;94.10;;;;;;5076537;28;20111;-70
2021/09/08 08:56:26;;;;;;;21.42;13.82;;;23.90;93.20;;;;;;5076175;28;20040;-70
2021/09/08 08:58:53;;;;;;;18.92;15.10;;;23.90;93.50;;;;;;5075567;28;20227;-70
2021/09/08 09:01:24;;;;;;;21.08;14.27;;;24.00;93.70;;;;;;5075088;28;20048;-70
2021/09/08 09:04:02;;;;;;;19.20;13.93;;;23.90;92.00;;;;;;5076308;28;20442;-71
2021/09/08 09:06:28;;;;;;;20.10;14.40;;;23.90;92.30;;;;;;5076072;28;20045;-71
2021/09/08 09:09:07;;;;;;;19.80;13.95;;;24.00;91.30;;;;;;5076182;28;20036;-71
2021/09/08 09:11:34;;;;;;;21.90;15.05;;;24.00;92.30;;;;;;5075873;28;20396;-71
2021/09/08 09:14:02;;;;;;;17.67;12.52;;;23.80;92.60;;;;;;5076630;28;20044;-71
2021/09/08 09:16:28;;;;;;;16.55;12.43;;;23.90;92.80;;;;;;5076430;28;20028;-71
2021/09/08 09:18:54;;;;;;;20.73;11.93;;;23.90;92.00;;;;;;5074271;28;20048;-71
2021/09/08 09:21:23;;;;;;;19.88;12.02;;;23.90;91.50;;;;;;5057770;28;20044;-71
2021/09/08 09:23:57;;;;;;;15.60;11.35;;;24.00;91.80;;;;;;5075928;28;20548;-71
2021/09/08 09:26:33;;;;;;;15.02;12.07;;;23.90;92.10;;;;;;5057738;28;20047;-71
2021/09/08 09:29:25;;;;;;;15.32;12.02;;;23.80;91.70;;;;;;5075880;28;20044;-72
2021/09/08 09:31:58;;;;;;;17.55;10.65;;;23.80;92.30;;;;;;5075493;28;20051;-71
2021/09/08 09:34:30;;;;;;;14.23;10.65;;;23.90;90.40;;;;;;5075927;28;20133;-71
2021/09/08 09:36:58;;;;;;;13.88;10.88;;;23.80;88.20;;;;;;5075535;28;20044;-71
2021/09/08 09:39:34;;;;;;;15.60;10.02;;;23.90;90.10;;;;;;5075005;28;20040;-71
2021/09/08 09:42:05;;;;;;;15.80;10.02;;;23.90;89.10;;;;;;5075692;28;20048;-71
2021/09/08 09:44:31;;;;;;;16.75;10.05;;;23.90;89.40;;;;;;5073775;28;20063;-71
2021/09/08 09:46:58;;;;;;;17.33;9.85;;;24.00;89.30;;;;;;5074695;28;20047;-70
2021/09/08 09:49:25;;;;;;;17.08;11.25;;;24.10;89.20;;;;;;5073273;28;20052;-69
2021/09/08 09:51:55;;;;;;;14.32;10.10;;;24.00;90.10;;;;;;5074056;28;20039;-74
2021/09/08 09:54:22;;;;;;;13.80;9.95;;;24.00;87.90;;;;;;5075422;28;20435;-74
2021/09/08 09:56:48;;;;;;;14.95;9.15;;;24.10;87.90;;;;;;5091888;28;20040;-73
2021/09/08 09:59:13;;;;;;;13.50;9.90;;;24.00;87.60;;;;;;5092746;28;20117;-74
2021/09/08 10:01:39;;;;;;;13.27;9.95;;;24.00;85.40;;;;;;5086214;28;20079;-73
2021/09/08 10:04:04;;;;;;;12.07;8.70;;;23.90;85.60;;;;;;5074914;28;20029;-74
2021/09/08 10:06:31;;;;;;;14.07;8.73;;;24.00;85.70;;;;;;5075410;28;20529;-74
2021/09/08 10:08:58;;;;;;;14.32;9.13;;;23.90;83.60;;;;;;5074596;28;20064;-74
2021/09/08 10:11:26;;;;;;;13.90;8.27;;;24.00;85.30;;;;;;5074732;28;20064;-74
2021/09/08 10:13:59;;;;;;;12.80;7.78;;;23.90;84.20;;;;;;5074592;28;20385;-74
2021/09/08 10:16:27;;;;;;;15.13;9.38;;;24.10;83.70;;;;;;5074731;28;20069;-74
2021/09/08 10:18:52;;;;;;;12.75;9.65;;;24.10;82.70;;;;;;5074369;28;20044;-74
2021/09/08 10:21:19;;;;;;;15.10;8.70;;;24.00;84.60;;;;;;5074218;28;20040;-75
2021/09/08 10:23:52;;;;;;;12.27;8.35;;;24.10;84.70;;;;;;5074227;28;20044;-74
2021/09/08 10:26:18;;;;;;;11.18;7.88;;;24.20;82.50;;;;;;5074328;28;20094;-74
2021/09/08 10:28:46;;;;;;;12.15;8.15;;;24.10;82.40;;;;;;5073977;28;20072;-74
2021/09/08 10:31:13;;;;;;;14.25;8.68;;;24.10;82.20;;;;;;5074628;28;20047;-74
2021/09/08 10:33:40;;;;;;;13.52;8.40;;;24.10;82.80;;;;;;5056182;28;20044;-75
2021/09/08 10:36:09;;;;;;;13.90;8.00;;;24.20;84.40;;;;;;5072843;28;20073;-74
2021/09/08 10:38:35;;;;;;;14.57;8.30;;;24.20;84.90;;;;;;5073760;28;20131;-73
2021/09/08 10:41:03;;;;;;;11.70;7.20;;;24.40;84.50;;;;;;5074157;28;20064;-73
2021/09/08 10:43:33;;;;;;;10.43;6.97;;;24.60;81.40;;;;;;5074257;28;20039;-73
2021/09/08 10:46:00;;;;;;;9.98;8.07;;;24.80;79.80;;;;;;5073022;28;20123;-73
2021/09/08 10:48:36;;;;;;;10.15;6.50;;;24.90;78.50;;;;;;5073882;28;20361;-73
2021/09/08 10:51:02;;;;;;;11.02;7.53;;;24.90;80.00;;;;;;5074083;28;20040;-72
2021/09/08 10:53:29;;;;;;;11.50;7.40;;;24.90;79.20;;;;;;5074235;28;20043;-72
2021/09/08 10:55:56;;;;;;;12.00;7.47;;;25.00;76.70;;;;;;5072852;28;20047;-73
2021/09/08 10:58:21;;;;;;;14.68;7.95;;;25.00;76.10;;;;;;5073728;28;20041;-72
2021/09/08 11:00:49;;;;;;;13.85;7.75;;;24.90;75.90;;;;;;5073551;28;20039;-72
2021/09/08 11:03:15;;;;;;;13.68;8.30;;;25.00;76.90;;;;;;5073603;28;20423;-72
2021/09/08 11:05:50;;;;;;;12.68;7.72;;;25.00;77.00;;;;;;5056183;28;20032;-73
2021/09/08 11:08:26;;;;;;;12.05;7.90;;;25.00;77.40;;;;;;5073785;28;20036;-72
2021/09/08 11:11:17;;;;;;;10.23;7.93;;;24.90;76.80;;;;;;5071861;28;20484;-73
2021/09/08 11:13:53;;;;;;;12.93;7.93;;;24.90;75.60;;;;;;5072390;28;20049;-72
2021/09/08 11:16:25;;;;;;;11.98;7.90;;;24.90;76.50;;;;;;5073545;28;20040;-72
2021/09/08 11:18:52;;;;;;;13.23;7.72;;;24.80;76.70;;;;;;5072182;28;20040;-71
2021/09/08 11:21:21;;;;;;;10.85;7.35;;;24.80;78.20;;;;;;5073289;28;20490;-72
2021/09/08 11:23:47;;;;;;;14.75;8.98;;;24.90;78.90;;;;;;5073192;28;20066;-72
2021/09/08 11:26:13;;;;;;;13.15;7.93;;;24.90;79.10;;;;;;5072194;28;20036;-73
2021/09/08 11:28:40;;;;;;;11.25;7.07;;;25.00;80.20;;;;;;5071908;28;20044;-72
2021/09/08 11:31:20;;;;;;;11.52;7.38;;;25.00;78.10;;;;;;5071996;28;20066;-72
2021/09/08 11:33:46;;;;;;;9.38;6.97;;;25.00;78.60;;;;;;5073750;28;20083;-72
2021/09/08 11:36:18;;;;;;;9.85;7.35;;;25.00;77.30;;;;;;5073119;28;20033;-72
2021/09/08 11:38:49;;;;;;;9.50;6.72;;;24.90;75.80;;;;;;5072813;28;20507;-73
2021/09/08 11:41:16;;;;;;;10.13;6.85;;;24.90;76.30;;;;;;5073344;28;20384;-72
2021/09/08 11:43:50;;;;;;;10.18;7.15;;;25.00;76.80;;;;;;5073248;28;20039;-73
2021/09/08 11:46:20;;;;;;;13.05;7.38;;;25.10;76.10;;;;;;5071972;28;20408;-73
2021/09/08 11:48:50;;;;;;;10.68;6.82;;;25.00;76.30;;;;;;5073132;28;20051;-73
2021/09/08 11:51:19;;;;;;;8.88;6.75;;;25.00;74.80;;;;;;5073426;28;20041;-72
2021/09/08 11:53:46;;;;;;;10.18;6.90;;;25.00;74.00;;;;;;5073222;28;20503;-73
2021/09/08 11:56:14;;;;;;;9.07;6.15;;;25.10;74.80;;;;;;5073212;28;20040;-73
2021/09/08 11:58:42;;;;;;;8.45;5.60;;;25.00;73.50;;;;;;5071450;28;20049;-72
2021/09/08 12:01:11;;;;;;;7.10;5.88;;;25.20;72.70;;;;;;5072948;28;20032;-72
2021/09/08 12:03:44;;;;;;;8.98;5.78;;;25.20;71.30;;;;;;5073039;28;20094;-72
2021/09/08 12:06:31;;;;;;;10.65;6.28;;;25.20;70.80;;;;;;5073299;28;20109;-72
2021/09/08 12:09:02;;;;;;;6.57;4.93;;;25.20;74.30;;;;;;5071716;28;20492;-73
2021/09/08 12:11:53;;;;;;;7.35;5.00;;;25.40;71.20;;;;;;5072997;28;20090;-73
2021/09/08 12:14:27;;;;;;;6.40;5.13;;;25.30;68.60;;;;;;5073320;28;20047;-72
2021/09/08 12:17:15;;;;;;;8.07;5.00;;;25.20;67.80;;;;;;5072094;28;20056;-72
2021/09/08 12:19:46;;;;;;;7.05;5.30;;;25.30;67.70;;;;;;5072635;28;20048;-72
2021/09/08 12:22:21;;;;;;;6.97;4.50;;;25.40;67.30;;;;;;5073790;28;20059;-72
2021/09/08 12:24:52;;;;;;;7.70;5.00;;;25.40;65.10;;;;;;5075600;28;20089;-72
2021/09/08 12:27:28;;;;;;;7.50;4.22;;;25.40;65.30;;;;;;5075959;28;20040;-72
2021/09/08 12:29:56;;;;;;;7.15;4.30;;;25.40;62.80;;;;;;5076758;28;20170;-72